createdAt,value
2017-12-25T00:01:00.071Z,24.95
2017-12-25T00:03:28.335Z,24.12
2017-12-25T00:05:56.615Z,26.17
2017-12-25T00:08:24.874Z,22.73
2017-12-25T00:10:53.168Z,22.62
2017-12-25T00:13:21.430Z,26.42
2017-12-25T00:15:48.946Z,23.52
2017-12-25T00:18:16.442Z,22.02
2017-12-25T00:20:43.938Z,22.95
2017-12-25T00:23:11.432Z,24.45
2017-12-25T00:25:38.940Z,24.85
2017-12-25T00:28:07.418Z,22.27
2017-12-25T00:30:35.686Z,25.52
2017-12-25T00:33:03.199Z,27.48
2017-12-25T00:35:30.915Z,23.92
2017-12-25T00:37:59.179Z,24.92
2017-12-25T00:40:26.679Z,22.40
2017-12-25T00:42:54.174Z,25.15
2017-12-25T00:45:21.674Z,28.73
2017-12-25T00:47:49.946Z,26.40
2017-12-25T00:50:18.211Z,27.10
2017-12-25T00:52:45.752Z,26.85
2017-12-25T00:55:13.254Z,23.70
2017-12-25T00:57:40.754Z,24.83
2017-12-25T01:00:08.251Z,25.08
2017-12-25T01:02:36.533Z,28.27
2017-12-25T01:05:04.844Z,25.30
2017-12-25T01:07:32.339Z,24.30
2017-12-25T01:09:59.838Z,24.52
2017-12-25T01:12:27.351Z,25.65
2017-12-25T01:14:54.848Z,25.90
2017-12-25T01:17:23.107Z,24.73
2017-12-25T01:19:51.381Z,24.42
2017-12-25T01:22:18.870Z,23.48
2017-12-25T01:24:46.376Z,23.90
2017-12-25T01:27:13.874Z,24.75
2017-12-25T01:29:42.151Z,25.00
2017-12-25T01:32:10.411Z,24.85
2017-12-25T01:34:38.679Z,24.65
2017-12-25T01:37:06.196Z,25.30
2017-12-25T01:39:33.711Z,23.30
2017-12-25T01:42:01.218Z,23.70
2017-12-25T01:44:28.719Z,25.75
2017-12-25T01:47:05.993Z,24.15
2017-12-25T01:49:33.514Z,26.05
2017-12-25T01:52:01.016Z,23.27
2017-12-25T01:54:29.473Z,26.37
2017-12-25T01:57:18.855Z,21.55
2017-12-25T02:00:10.139Z,21.83
2017-12-25T02:02:37.643Z,20.70
2017-12-25T02:05:40.745Z,22.62
2017-12-25T02:08:29.590Z,23.65
2017-12-25T02:10:57.501Z,26.42
2017-12-25T02:13:25.012Z,20.70
2017-12-25T02:15:52.507Z,21.35
2017-12-25T02:18:20.024Z,22.33
2017-12-25T02:20:47.714Z,21.55
2017-12-25T02:23:15.990Z,24.12
2017-12-25T02:25:44.267Z,23.27
2017-12-25T02:28:12.575Z,20.90
2017-12-25T02:30:40.072Z,20.90
2017-12-25T02:33:07.631Z,21.30
2017-12-25T02:35:35.139Z,20.77
2017-12-25T02:38:02.637Z,21.90
2017-12-25T02:40:30.129Z,22.20
2017-12-25T02:42:58.413Z,25.92
2017-12-25T02:45:26.681Z,26.35
2017-12-25T02:47:54.951Z,25.62
2017-12-25T02:50:23.215Z,19.55
2017-12-25T02:52:52.215Z,21.85
2017-12-25T02:55:19.719Z,20.70
2017-12-25T02:57:47.231Z,19.50
2017-12-25T03:00:14.734Z,22.85
2017-12-25T03:02:42.244Z,23.08
2017-12-25T03:05:09.756Z,21.08
2017-12-25T03:07:37.273Z,21.73
2017-12-25T03:10:04.769Z,21.58
2017-12-25T03:12:32.302Z,19.65
2017-12-25T03:15:00.571Z,23.08
2017-12-25T03:17:28.077Z,21.92
2017-12-25T03:19:55.576Z,22.85
2017-12-25T03:22:23.090Z,22.05
2017-12-25T03:24:50.606Z,23.75
2017-12-25T03:27:18.875Z,19.85
2017-12-25T03:29:46.369Z,20.20
2017-12-25T03:32:13.882Z,24.02
2017-12-25T03:34:41.379Z,21.98
2017-12-25T03:37:08.884Z,22.02
2017-12-25T03:39:36.383Z,19.98
2017-12-25T03:42:04.642Z,22.98
2017-12-25T03:44:32.322Z,21.48
2017-12-25T03:47:00.582Z,20.73
2017-12-25T03:49:28.086Z,22.00
2017-12-25T03:51:55.583Z,22.02
2017-12-25T03:54:23.074Z,22.95
2017-12-25T03:56:51.347Z,21.67
2017-12-25T03:59:19.612Z,20.95
2017-12-25T04:01:47.109Z,21.00
2017-12-25T04:04:14.610Z,22.17
2017-12-25T04:06:42.110Z,22.25
2017-12-25T04:09:09.617Z,22.10
2017-12-25T04:11:37.111Z,23.30
2017-12-25T04:14:05.380Z,24.05
2017-12-25T04:16:32.874Z,23.90
2017-12-25T04:19:00.375Z,24.02
2017-12-25T04:21:27.878Z,22.00
2017-12-25T04:23:55.526Z,21.02
2017-12-25T04:26:23.787Z,22.13
2017-12-25T04:28:51.299Z,22.45
2017-12-25T04:31:18.795Z,23.87
2017-12-25T04:33:46.300Z,23.85
2017-12-25T04:36:13.808Z,23.50
2017-12-25T04:38:41.303Z,24.55
2017-12-25T04:41:10.395Z,21.42
2017-12-25T04:43:38.650Z,20.65
2017-12-25T04:46:06.171Z,20.02
2017-12-25T04:48:33.687Z,22.70
2017-12-25T04:51:01.955Z,23.55
2017-12-25T04:53:30.447Z,22.58
2017-12-25T04:55:58.715Z,23.87
2017-12-25T04:58:26.971Z,27.52
2017-12-25T05:00:55.975Z,24.37
2017-12-25T05:03:23.483Z,22.45
2017-12-25T05:05:50.983Z,22.92
2017-12-25T05:08:18.483Z,26.45
2017-12-25T05:10:45.976Z,22.67
2017-12-25T05:13:13.478Z,24.73
2017-12-25T05:15:41.743Z,23.50
2017-12-25T05:18:09.283Z,24.77
2017-12-25T05:20:38.302Z,24.15
2017-12-25T05:23:06.582Z,26.20
2017-12-25T05:25:34.843Z,19.80
2017-12-25T05:28:03.107Z,23.05
2017-12-25T05:30:30.799Z,23.85
2017-12-25T05:32:59.060Z,23.17
2017-12-25T05:35:26.557Z,23.80
2017-12-25T05:37:54.059Z,25.27
2017-12-25T05:40:21.615Z,24.83
2017-12-25T05:42:49.109Z,25.95
2017-12-25T05:45:17.380Z,25.62
2017-12-25T05:47:45.663Z,27.83
2017-12-25T06:03:21.399Z,23.85
2017-12-25T06:05:49.675Z,23.62
2017-12-25T06:08:17.939Z,22.83
2017-12-25T06:10:45.434Z,25.23
2017-12-25T06:13:12.950Z,22.00
2017-12-25T06:15:40.479Z,24.95
2017-12-25T06:18:07.984Z,25.15
2017-12-25T06:20:36.244Z,26.30
2017-12-25T06:23:03.759Z,25.08
2017-12-25T06:25:31.275Z,26.17
2017-12-25T06:28:00.031Z,26.73
2017-12-25T06:30:27.535Z,25.80
2017-12-25T06:32:55.031Z,24.35
2017-12-25T06:35:22.531Z,27.87
2017-12-25T06:37:50.804Z,29.02
2017-12-25T06:40:18.303Z,29.85
2017-12-25T06:42:45.799Z,49.33
2017-12-25T06:45:13.295Z,29.33
2017-12-25T06:47:41.572Z,29.10
2017-12-25T06:50:10.052Z,29.27
2017-12-25T06:52:38.318Z,35.72
2017-12-25T06:55:06.583Z,31.48
2017-12-25T06:57:34.262Z,31.15
2017-12-25T07:00:02.525Z,29.42
2017-12-25T07:02:30.021Z,52.80
2017-12-25T07:04:57.521Z,31.10
2017-12-25T07:07:25.037Z,31.02
2017-12-25T07:09:52.548Z,33.03
2017-12-25T07:12:20.047Z,29.55
2017-12-25T07:14:47.548Z,31.65
2017-12-25T07:17:15.107Z,33.03
2017-12-25T07:19:42.650Z,27.08
2017-12-25T07:22:10.151Z,30.27
2017-12-25T07:24:37.650Z,33.40
2017-12-25T07:27:05.147Z,44.60
2017-12-25T07:29:32.667Z,32.95
2017-12-25T07:32:00.171Z,42.08
2017-12-25T07:34:27.667Z,33.92
2017-12-25T07:36:55.170Z,39.33
2017-12-25T07:39:22.666Z,29.70
2017-12-25T07:41:50.947Z,32.10
2017-12-25T07:44:19.253Z,27.77
2017-12-25T07:46:46.748Z,29.67
2017-12-25T07:49:14.265Z,26.92
2017-12-25T07:51:41.765Z,27.33
2017-12-25T07:54:09.272Z,31.62
2017-12-25T07:56:36.771Z,31.45
2017-12-25T07:59:04.280Z,34.20
2017-12-25T08:01:32.601Z,38.40
2017-12-25T08:04:00.072Z,35.00
2017-12-25T08:06:27.619Z,29.55
2017-12-25T08:08:55.128Z,28.45
2017-12-25T08:11:23.391Z,30.50
2017-12-25T08:13:51.662Z,30.73
2017-12-25T08:16:19.165Z,30.48
2017-12-25T08:18:46.690Z,32.53
2017-12-25T08:21:14.960Z,33.40
2017-12-25T08:23:42.635Z,34.08
2017-12-25T08:26:10.935Z,28.58
2017-12-25T08:28:39.399Z,29.55
2017-12-25T08:31:07.675Z,27.35
2017-12-25T08:33:35.947Z,33.85
2017-12-25T08:36:04.216Z,32.13
2017-12-25T08:38:32.496Z,28.98
2017-12-25T08:41:00.811Z,27.73
2017-12-25T08:43:28.315Z,28.92
2017-12-25T08:45:55.835Z,26.95
2017-12-25T08:48:23.348Z,27.58
2017-12-25T08:50:51.631Z,30.73
2017-12-25T08:53:19.935Z,28.25
2017-12-25T08:55:47.435Z,30.73
2017-12-25T08:58:14.932Z,26.37
2017-12-25T09:00:43.238Z,27.30
2017-12-25T09:03:10.787Z,31.70
2017-12-25T09:05:38.290Z,30.70
2017-12-25T09:08:05.782Z,26.12
2017-12-25T09:10:33.302Z,27.52
2017-12-25T09:13:00.796Z,25.83
2017-12-25T09:15:29.066Z,26.55
2017-12-25T09:17:57.368Z,30.45
2017-12-25T09:20:24.877Z,28.30
2017-12-25T09:22:52.388Z,24.15
2017-12-25T09:25:19.885Z,25.35
2017-12-25T09:27:47.391Z,26.40
2017-12-25T09:30:14.890Z,27.25
2017-12-25T09:32:42.391Z,26.80
2017-12-25T09:35:10.697Z,28.02
2017-12-25T09:37:38.195Z,25.30
2017-12-25T09:40:05.695Z,25.25
2017-12-25T09:42:34.379Z,27.42
2017-12-25T09:45:02.668Z,28.58
2017-12-25T09:47:30.171Z,28.92
2017-12-25T09:49:57.663Z,27.45
2017-12-25T09:52:25.926Z,26.87
2017-12-25T09:54:53.612Z,23.40
2017-12-25T09:57:21.889Z,24.12
2017-12-25T09:59:50.150Z,24.50
2017-12-25T10:02:18.420Z,26.65
2017-12-25T10:04:45.919Z,25.60
2017-12-25T10:07:13.419Z,27.10
2017-12-25T10:09:40.920Z,24.85
2017-12-25T10:12:08.447Z,23.75
2017-12-25T10:14:35.943Z,25.35
2017-12-25T10:17:03.464Z,25.25
2017-12-25T10:19:30.983Z,24.48
2017-12-25T10:21:58.495Z,24.42
2017-12-25T10:24:26.763Z,25.20
2017-12-25T10:26:54.279Z,26.17
2017-12-25T10:29:21.775Z,23.10
2017-12-25T10:31:49.268Z,24.75
2017-12-25T10:34:16.777Z,24.95
2017-12-25T10:36:44.292Z,23.58
2017-12-25T10:39:11.791Z,23.77
2017-12-25T10:41:39.291Z,22.58
2017-12-25T10:44:07.566Z,24.65
2017-12-25T10:46:35.846Z,23.85
2017-12-25T10:49:04.111Z,25.60
2017-12-25T10:51:32.486Z,22.77
2017-12-25T10:54:00.756Z,23.92
2017-12-25T10:56:29.023Z,23.50
2017-12-25T10:58:56.532Z,23.00
2017-12-25T11:01:24.047Z,22.40
2017-12-25T11:03:51.539Z,23.05
2017-12-25T11:06:19.075Z,23.67
2017-12-25T11:08:47.344Z,22.70
2017-12-25T11:11:14.843Z,23.77
2017-12-25T11:13:42.336Z,23.02
2017-12-25T11:16:10.032Z,19.85
2017-12-25T11:18:38.291Z,21.37
2017-12-25T11:21:05.783Z,23.25
2017-12-25T11:23:33.274Z,22.20
2017-12-25T11:26:00.785Z,22.75
2017-12-25T11:28:29.059Z,19.98
2017-12-25T11:30:57.315Z,22.80
2017-12-25T11:33:24.819Z,20.52
2017-12-25T11:35:52.327Z,20.95
2017-12-25T11:38:19.827Z,18.75
2017-12-25T11:40:47.471Z,21.23
2017-12-25T11:43:15.739Z,21.20
2017-12-25T11:45:44.003Z,21.85
2017-12-25T11:48:11.511Z,23.20
2017-12-25T11:50:39.019Z,20.75
2017-12-25T11:53:06.527Z,21.98
2017-12-25T11:55:34.043Z,19.42
2017-12-25T11:58:02.327Z,21.40
2017-12-25T12:00:30.587Z,19.05
2017-12-25T12:02:58.083Z,20.98
2017-12-25T12:05:25.629Z,19.85
2017-12-25T12:07:53.906Z,22.62
2017-12-25T12:10:22.170Z,22.85
2017-12-25T12:12:50.438Z,24.67
2017-12-25T12:15:17.948Z,24.83
2017-12-25T12:17:45.463Z,29.75
2017-12-25T12:20:13.782Z,42.70
2017-12-25T12:22:41.306Z,31.73
2017-12-25T12:25:09.591Z,26.05
2017-12-25T12:27:37.858Z,57.38
2017-12-25T12:30:06.139Z,43.60
2017-12-25T12:32:34.427Z,25.98
2017-12-25T12:35:01.941Z,20.27
2017-12-25T12:37:29.466Z,17.77
2017-12-25T12:39:56.980Z,17.90
2017-12-25T12:42:25.258Z,20.40
2017-12-25T12:44:53.530Z,20.07
2017-12-25T12:47:21.039Z,26.33
2017-12-25T12:49:48.564Z,23.70
2017-12-25T12:52:16.847Z,25.17
2017-12-25T12:54:44.379Z,20.47
2017-12-25T12:57:11.879Z,17.07
2017-12-25T12:59:39.384Z,16.77
2017-12-25T13:02:07.128Z,26.00
2017-12-25T13:04:34.614Z,23.77
2017-12-25T13:07:02.122Z,17.57
2017-12-25T13:09:29.619Z,17.97
2017-12-25T13:11:57.126Z,18.87
2017-12-25T13:14:24.667Z,17.80
2017-12-25T13:16:52.944Z,15.80
2017-12-25T13:19:21.223Z,19.47
2017-12-25T13:21:49.507Z,18.77
2017-12-25T13:24:17.779Z,17.20
2017-12-25T13:26:46.043Z,27.63
2017-12-25T13:29:14.310Z,16.70
2017-12-25T13:31:41.819Z,15.03
2017-12-25T13:34:09.319Z,13.70
2017-12-25T13:36:36.825Z,15.83
2017-12-25T13:39:04.563Z,18.50
2017-12-25T13:41:32.827Z,17.77
2017-12-25T13:44:00.327Z,14.40
2017-12-25T13:46:27.836Z,14.30
2017-12-25T13:48:55.375Z,15.47
2017-12-25T13:51:22.875Z,15.40
2017-12-25T13:53:51.157Z,16.77
2017-12-25T13:56:19.424Z,30.07
2017-12-25T13:58:47.686Z,24.67
2017-12-25T14:01:15.206Z,21.37
2017-12-25T14:03:42.723Z,20.17
2017-12-25T14:06:11.007Z,19.23
2017-12-25T14:08:38.528Z,17.63
2017-12-25T14:11:06.031Z,17.87
2017-12-25T14:13:34.308Z,23.40
2017-12-25T14:16:01.828Z,17.53
2017-12-25T14:18:29.335Z,16.57
2017-12-25T14:20:56.848Z,17.52
2017-12-25T14:23:24.531Z,16.98
2017-12-25T14:25:52.844Z,17.30
2017-12-25T14:28:20.347Z,16.40
2017-12-25T14:30:48.645Z,19.77
2017-12-25T14:33:16.926Z,17.80
2017-12-25T14:35:44.432Z,17.75
2017-12-25T14:38:11.930Z,20.52
2017-12-25T14:40:40.198Z,20.65
2017-12-25T14:43:07.696Z,18.30
2017-12-25T14:45:35.191Z,21.95
2017-12-25T14:48:02.691Z,24.60
2017-12-25T14:50:31.000Z,24.73
2017-12-25T14:52:58.527Z,29.15
2017-12-25T14:55:26.046Z,25.50
2017-12-25T14:57:53.561Z,20.88
2017-12-25T15:00:21.063Z,17.40
2017-12-25T15:02:48.556Z,18.50
2017-12-25T15:05:16.831Z,19.95
2017-12-25T15:07:45.091Z,17.23
2017-12-25T15:10:12.607Z,16.50
2017-12-25T15:12:40.148Z,15.38
2017-12-25T15:15:07.648Z,27.10
2017-12-25T15:17:35.171Z,28.52
2017-12-25T15:20:02.806Z,20.73
2017-12-25T15:22:31.074Z,21.35
2017-12-25T15:24:59.356Z,27.20
2017-12-25T15:27:27.619Z,36.33
2017-12-25T15:29:55.295Z,38.72
2017-12-25T15:32:23.571Z,34.75
2017-12-25T15:34:51.845Z,29.67
2017-12-25T15:37:20.108Z,18.17
2017-12-25T15:39:47.608Z,16.40
2017-12-25T15:42:15.103Z,18.27
2017-12-25T15:44:42.660Z,17.80
2017-12-25T15:47:10.155Z,17.52
2017-12-25T15:49:38.415Z,16.30
2017-12-25T15:52:05.912Z,15.80
2017-12-25T15:54:33.408Z,18.60
2017-12-25T15:57:00.904Z,15.63
2017-12-25T15:59:29.188Z,17.20
2017-12-25T16:01:57.467Z,21.37
2017-12-25T16:04:25.727Z,18.60
2017-12-25T16:06:54.006Z,21.65
2017-12-25T16:09:21.532Z,14.45
2017-12-25T16:11:49.043Z,15.88
2017-12-25T16:14:16.579Z,19.67
2017-12-25T16:16:44.843Z,19.92
2017-12-25T16:19:12.537Z,24.87
2017-12-25T16:21:40.814Z,27.20
2017-12-25T16:24:08.319Z,27.50
2017-12-25T16:26:35.822Z,23.15
2017-12-25T16:29:04.104Z,27.27
2017-12-25T16:31:32.361Z,46.33
2017-12-25T16:34:00.644Z,40.97
2017-12-25T16:36:28.915Z,31.25
2017-12-25T16:38:56.447Z,29.08
2017-12-25T16:41:24.143Z,24.27
2017-12-25T16:43:52.421Z,25.70
2017-12-25T16:46:20.686Z,24.50
2017-12-25T16:48:48.367Z,25.17
2017-12-25T16:51:17.050Z,22.58
2017-12-25T16:53:45.320Z,22.08
2017-12-25T16:56:13.591Z,27.50
2017-12-25T16:58:41.855Z,23.80
2017-12-25T17:01:09.353Z,23.27
2017-12-25T17:03:36.858Z,24.67
2017-12-25T17:06:04.359Z,19.40
2017-12-25T17:08:32.627Z,20.12
2017-12-25T17:11:00.899Z,19.45
2017-12-25T17:13:29.166Z,18.25
2017-12-25T17:15:57.435Z,17.80
2017-12-25T17:18:24.943Z,20.88
2017-12-25T17:20:52.435Z,17.65
2017-12-25T17:23:19.931Z,19.48
2017-12-25T17:25:48.216Z,18.80
2017-12-25T17:28:16.492Z,19.55
2017-12-25T17:30:44.792Z,20.90
2017-12-25T17:33:12.279Z,22.73
2017-12-25T17:35:39.783Z,20.20
2017-12-25T17:38:08.091Z,17.85
2017-12-25T17:40:35.601Z,24.52
2017-12-25T17:43:03.867Z,24.55
2017-12-25T17:45:31.386Z,25.12
2017-12-25T17:47:58.916Z,23.17
2017-12-25T17:50:26.419Z,25.42
2017-12-25T17:52:53.911Z,30.90
2017-12-25T17:55:21.412Z,33.47
2017-12-25T17:57:48.947Z,37.83
2017-12-25T18:00:17.204Z,33.97
2017-12-25T18:02:45.471Z,31.83
2017-12-25T18:05:12.972Z,35.47
2017-12-25T18:07:40.471Z,34.03
2017-12-25T18:10:07.964Z,30.75
2017-12-25T18:12:36.244Z,30.98
2017-12-25T18:15:04.510Z,27.83
2017-12-25T18:17:32.784Z,28.12
2017-12-25T18:20:00.279Z,27.83
2017-12-25T18:22:27.780Z,25.40
2017-12-25T18:24:56.047Z,23.75
2017-12-25T18:27:23.547Z,23.83
2017-12-25T18:29:51.815Z,24.17
2017-12-25T18:32:20.095Z,23.75
2017-12-25T18:34:48.580Z,22.00
2017-12-25T18:37:16.847Z,22.73
2017-12-25T18:39:45.107Z,24.92
2017-12-25T18:42:12.615Z,40.58
2017-12-25T18:44:40.120Z,34.53
2017-12-25T18:47:07.639Z,31.98
2017-12-25T18:49:35.141Z,32.47
2017-12-25T18:52:02.649Z,53.70
2017-12-25T18:54:30.280Z,41.80
2017-12-25T18:56:58.544Z,49.75
2017-12-25T18:59:26.059Z,49.55
2017-12-25T19:01:53.570Z,45.12
2017-12-25T19:04:21.835Z,38.45
2017-12-25T19:06:49.333Z,35.13
2017-12-25T19:09:16.833Z,32.55
2017-12-25T19:11:44.338Z,28.67
2017-12-25T19:14:11.889Z,27.17
2017-12-25T19:16:40.153Z,33.33
2017-12-25T19:19:08.461Z,29.35
2017-12-25T19:21:36.076Z,33.92
2017-12-25T19:24:03.572Z,29.55
2017-12-25T19:26:31.112Z,31.50
2017-12-25T19:28:59.399Z,32.80
2017-12-25T19:31:27.671Z,31.80
2017-12-25T19:33:55.935Z,31.75
2017-12-25T19:36:23.454Z,29.35
2017-12-25T19:38:50.968Z,37.35
2017-12-25T19:41:19.238Z,35.42
2017-12-25T19:43:47.499Z,34.83
2017-12-25T19:46:15.007Z,35.83
2017-12-25T19:48:42.547Z,34.95
2017-12-25T19:51:10.047Z,31.00
2017-12-25T19:53:37.563Z,33.40
2017-12-25T19:56:05.100Z,34.30
2017-12-25T19:58:33.375Z,33.70
2017-12-25T20:01:00.891Z,36.60
2017-12-25T20:03:28.384Z,29.45
2017-12-25T20:05:55.886Z,31.37
2017-12-25T20:08:23.389Z,37.00
2017-12-25T20:10:50.915Z,30.08
2017-12-25T20:13:18.433Z,27.20
2017-12-25T20:15:46.695Z,29.87
2017-12-25T20:18:14.197Z,34.00
2017-12-25T20:20:41.739Z,30.08
2017-12-25T20:23:10.007Z,27.48
2017-12-25T20:25:38.270Z,24.20
2017-12-25T20:28:05.795Z,26.75
2017-12-25T20:30:33.301Z,31.98
2017-12-25T20:33:01.580Z,27.48
2017-12-25T20:35:29.888Z,27.85
2017-12-25T20:37:57.411Z,25.88
2017-12-25T20:40:25.672Z,26.90
2017-12-25T20:42:53.355Z,30.62
2017-12-25T20:45:21.625Z,33.75
2017-12-25T20:47:49.891Z,29.85
2017-12-25T20:50:17.504Z,32.67
2017-12-25T20:52:45.011Z,33.03
2017-12-25T20:55:13.289Z,30.60
2017-12-25T20:57:41.551Z,35.90
2017-12-25T21:00:09.055Z,33.88
2017-12-25T21:02:36.557Z,48.50
2017-12-25T21:05:04.103Z,29.12
2017-12-25T21:07:31.616Z,35.80
2017-12-25T21:09:59.133Z,41.80
2017-12-25T21:12:26.628Z,79.95
2017-12-25T21:14:54.891Z,74.90
2017-12-25T21:17:23.158Z,64.60
2017-12-25T21:19:50.660Z,37.70
2017-12-25T21:22:18.164Z,74.93
2017-12-25T21:24:45.665Z,83.50
2017-12-25T21:27:13.181Z,54.55
2017-12-25T21:29:40.675Z,33.00
2017-12-25T21:32:08.955Z,54.08
2017-12-25T21:34:36.447Z,35.67
2017-12-25T21:37:03.961Z,62.08
2017-12-25T21:39:32.238Z,58.55
2017-12-25T21:42:00.503Z,57.95
2017-12-25T21:44:28.774Z,32.47
2017-12-25T21:46:56.269Z,87.03
2017-12-25T21:49:23.767Z,44.90
2017-12-25T21:51:51.266Z,47.00
2017-12-25T21:54:19.531Z,65.00
2017-12-25T21:56:47.787Z,58.83
2017-12-25T21:59:16.068Z,22.83
2017-12-25T22:01:43.568Z,33.00
2017-12-25T22:04:11.087Z,25.88
2017-12-25T22:06:38.603Z,43.70
2017-12-25T22:09:06.121Z,43.45
2017-12-25T22:11:34.391Z,29.25
2017-12-25T22:14:02.660Z,64.28
2017-12-25T22:16:30.162Z,31.73
2017-12-25T22:18:57.663Z,73.82
2017-12-25T22:21:25.183Z,28.52
2017-12-25T22:23:52.674Z,49.55
2017-12-25T22:26:20.187Z,29.15
2017-12-25T22:28:47.689Z,33.97
2017-12-25T22:31:15.195Z,31.92
2017-12-25T22:33:42.695Z,19.17
2017-12-25T22:36:10.191Z,17.83
2017-12-25T22:38:38.474Z,17.20
2017-12-25T22:41:06.735Z,24.00
2017-12-25T22:43:34.247Z,23.80
2017-12-25T22:46:01.750Z,22.10
2017-12-25T22:48:30.751Z,19.77
2017-12-25T22:50:58.249Z,20.70
2017-12-25T22:53:25.747Z,28.90
2017-12-25T22:55:53.262Z,45.03
2017-12-25T22:58:20.775Z,20.55
2017-12-25T23:00:48.275Z,27.10
2017-12-25T23:03:15.772Z,22.55
2017-12-25T23:05:43.280Z,22.25
2017-12-25T23:08:11.544Z,23.58
2017-12-25T23:10:39.802Z,21.83
2017-12-25T23:13:08.061Z,35.25
2017-12-25T23:15:35.574Z,29.17
2017-12-25T23:18:03.078Z,71.28
2017-12-25T23:20:30.595Z,22.77
2017-12-25T23:22:58.099Z,31.77
2017-12-25T23:25:25.597Z,24.35
2017-12-25T23:27:53.980Z,31.15
2017-12-25T23:30:22.247Z,25.73
2017-12-25T23:32:50.507Z,37.33
2017-12-25T23:35:18.012Z,31.08
2017-12-25T23:37:45.511Z,26.65
2017-12-25T23:40:13.790Z,25.20
2017-12-25T23:42:42.815Z,40.38
2017-12-25T23:45:11.079Z,45.28
2017-12-25T23:47:39.355Z,38.25
2017-12-25T23:50:07.635Z,62.15
2017-12-25T23:52:35.953Z,56.35
2017-12-25T23:55:04.287Z,27.25
2017-12-25T23:57:32.770Z,95.03
